Time;durP1;ratioP1;P1;durP2;ratioP2;P2;SDS_P1;SDS_P2;PMS_P1;PMS_P2;Temp;Humidity;BMP_temperature;BMP_pressure;BME280_temperature;BME280_humidity;BME280_pressure;Samples;Min_cycle;Max_cycle;Signal;HPM_P1;HPM_P2
2023/04/12 00:00:47;;;;;;;0.70;0.70;;;;;;;10.21;57.93;99025.34;4487344;31;35029;-60
2023/04/12 00:03:19;;;;;;;0.98;0.88;;;;;;;9.97;58.91;99029.06;4487746;31;34543;-61
2023/04/12 00:05:53;;;;;;;0.90;0.90;;;;;;;10.21;57.63;99028.84;4492070;31;34589;-60
2023/04/12 00:08:32;;;;;;;2.08;1.25;;;;;;;9.92;58.08;99020.59;4485824;31;34095;-60
2023/04/12 00:11:01;;;;;;;0.77;0.77;;;;;;;9.85;58.83;99030.09;4489111;31;36362;-61
2023/04/12 00:13:29;;;;;;;1.20;0.88;;;;;;;10.26;57.53;99040.03;4487159;31;32259;-60
2023/04/12 00:15:56;;;;;;;0.62;0.62;;;;;;;9.89;58.30;99028.03;4486181;31;33999;-61
2023/04/12 00:18:24;;;;;;;1.05;0.95;;;;;;;10.34;57.45;99023.34;4489136;31;35301;-60
2023/04/12 00:20:54;;;;;;;1.52;1.27;;;;;;;10.14;58.07;99034.81;4489857;31;33299;-62
2023/04/12 00:23:21;;;;;;;1.95;1.40;;;;;;;10.25;57.85;99034.78;4484623;31;33932;-60
2023/04/12 00:25:49;;;;;;;4.00;1.60;;;;;;;10.25;58.02;99040.13;4495966;31;34432;-61
2023/04/12 00:28:17;;;;;;;1.25;0.77;;;;;;;10.74;56.72;99038.63;4488629;31;33889;-61
2023/04/12 00:30:45;;;;;;;0.88;0.88;;;;;;;10.94;55.46;99039.56;4492408;31;33545;-62
2023/04/12 00:33:12;;;;;;;1.95;1.17;;;;;;;10.99;55.52;99036.50;4494300;31;33967;-62
2023/04/12 00:35:40;;;;;;;5.03;1.33;;;;;;;10.44;57.00;99040.28;4492181;31;31925;-61
2023/04/12 00:38:09;;;;;;;2.45;1.27;;;;;;;10.46;56.61;99026.78;4493124;31;33575;-61
2023/04/12 00:40:41;;;;;;;2.20;1.33;;;;;;;11.00;55.30;99024.81;4494266;31;33878;-62
2023/04/12 00:43:14;;;;;;;3.95;1.48;;;;;;;10.18;56.91;99014.91;4493496;31;33943;-61
2023/04/12 00:45:43;;;;;;;2.80;1.90;;;;;;;9.92;58.59;99017.94;4494267;31;34558;-61
2023/04/12 00:48:11;;;;;;;0.95;0.88;;;;;;;9.24;60.54;99008.41;4482392;31;34028;-62
2023/04/12 00:50:46;;;;;;;2.20;1.80;;;;;;;9.92;57.84;99019.72;4490007;31;35110;-63
2023/04/12 00:53:14;;;;;;;2.25;1.50;;;;;;;9.73;58.83;99010.59;4493150;31;33470;-61
2023/04/12 00:55:44;;;;;;;1.10;1.00;;;;;;;10.04;57.57;99011.53;4495017;31;35009;-61
2023/04/12 00:58:13;;;;;;;0.90;0.90;;;;;;;9.41;59.79;99018.59;4489699;31;32587;-60
2023/04/12 01:00:43;;;;;;;1.37;1.23;;;;;;;10.07;57.73;99014.94;4494867;31;34145;-60
2023/04/12 01:03:12;;;;;;;0.60;0.60;;;;;;;9.61;59.32;99016.09;4491158;31;33479;-60
2023/04/12 01:05:48;;;;;;;0.77;0.77;;;;;;;9.28;60.14;99009.87;4489138;31;33495;-61
2023/04/12 01:08:27;;;;;;;2.12;1.33;;;;;;;9.79;59.04;99009.22;4484449;31;34527;-60
2023/04/12 01:11:04;;;;;;;1.85;1.58;;;;;;;9.39;60.26;99011.66;4482968;31;34137;-61
2023/04/12 01:13:41;;;;;;;2.00;1.42;;;;;;;9.84;59.00;99009.69;4494432;31;34225;-61
2023/04/12 01:16:28;;;;;;;0.70;0.70;;;;;;;9.82;58.73;99000.94;4487197;31;34454;-61
2023/04/12 01:19:02;;;;;;;1.95;1.73;;;;;;;9.80;59.07;99002.91;4481379;31;33600;-60
2023/04/12 01:21:41;;;;;;;0.98;0.88;;;;;;;10.03;58.55;99014.34;4481290;31;34167;-60
2023/04/12 01:24:25;;;;;;;0.57;0.57;;;;;;;10.44;56.56;99029.59;4481635;31;34582;-61
2023/04/12 01:26:56;;;;;;;0.50;0.50;;;;;;;9.96;57.88;99022.03;4494068;31;33298;-60
2023/04/12 01:29:26;;;;;;;3.60;1.40;;;;;;;9.96;58.47;99023.88;4486669;31;34137;-61
2023/04/12 01:31:58;;;;;;;1.83;1.58;;;;;;;9.46;59.81;99026.22;4495135;31;35173;-60
2023/04/12 01:34:29;;;;;;;2.47;1.83;;;;;;;9.26;60.53;99036.69;4483650;31;33773;-60
2023/04/12 01:37:00;;;;;;;0.68;0.68;;;;;;;9.23;59.73;99025.41;4496604;31;34009;-61
2023/04/12 01:39:32;;;;;;;3.10;0.95;;;;;;;9.48;59.37;99024.28;4492816;31;34905;-62
2023/04/12 01:42:02;;;;;;;1.62;1.25;;;;;;;9.52;59.10;99023.88;4489826;31;32899;-61
2023/04/12 01:44:29;;;;;;;1.58;1.23;;;;;;;9.77;58.38;99008.50;4496608;31;33769;-60
2023/04/12 01:46:57;;;;;;;0.85;0.80;;;;;;;9.59;58.99;99018.87;4488449;31;34458;-61
2023/04/12 01:49:31;;;;;;;1.55;1.15;;;;;;;9.76;57.74;99014.84;4485405;31;35026;-61
2023/04/12 01:52:11;;;;;;;0.50;0.50;;;;;;;9.16;60.11;99017.03;4485134;31;35201;-62
2023/04/12 01:54:41;;;;;;;2.12;0.88;;;;;;;9.39;59.50;99017.00;4487972;31;33512;-62
2023/04/12 01:57:09;;;;;;;0.77;0.77;;;;;;;8.99;60.40;99025.53;4496710;31;32833;-62
2023/04/12 01:59:42;;;;;;;0.93;0.93;;;;;;;9.24;60.45;99019.09;4493015;31;32444;-61
2023/04/12 02:02:10;;;;;;;1.15;1.05;;;;;;;8.98;60.62;99014.03;4487354;31;34132;-61
2023/04/12 02:04:39;;;;;;;2.28;1.10;;;;;;;8.76;61.21;99011.34;4481034;31;33953;-62
2023/04/12 02:07:08;;;;;;;1.02;1.00;;;;;;;8.35;63.20;99012.75;4489875;31;34882;-62
2023/04/12 02:09:38;;;;;;;1.87;1.45;;;;;;;7.90;64.14;99015.31;4486401;31;33562;-61
2023/04/12 02:12:07;;;;;;;2.08;1.27;;;;;;;8.40;63.04;99010.59;4490760;31;33960;-62
2023/04/12 02:14:35;;;;;;;3.40;2.90;;;;;;;8.60;61.84;99006.38;4485324;31;34004;-62
2023/04/12 02:17:04;;;;;;;1.30;1.20;;;;;;;8.60;62.01;99015.25;4491315;31;33842;-63
2023/04/12 02:19:32;;;;;;;2.17;1.95;;;;;;;8.60;62.21;99015.25;4488438;31;32546;-62
2023/04/12 02:22:01;;;;;;;1.55;1.45;;;;;;;9.05;60.71;99007.25;4496307;31;33790;-61
2023/04/12 02:24:28;;;;;;;3.72;1.37;;;;;;;9.02;60.46;99015.50;4485853;31;33629;-62
2023/04/12 02:26:57;;;;;;;1.27;1.15;;;;;;;8.45;62.37;99021.78;4495141;31;33392;-63
2023/04/12 02:29:26;;;;;;;2.53;1.40;;;;;;;8.96;61.48;99021.31;4486539;31;32614;-62
2023/04/12 02:31:53;;;;;;;1.40;1.30;;;;;;;9.06;60.90;99019.59;4482972;31;35183;-63
2023/04/12 02:34:21;;;;;;;1.95;1.37;;;;;;;8.96;61.63;99021.31;4497250;31;33542;-63
2023/04/12 02:36:50;;;;;;;1.37;1.17;;;;;;;9.39;60.25;99019.69;4496932;31;34295;-62
2023/04/12 02:39:17;;;;;;;1.08;0.93;;;;;;;9.71;58.41;99011.69;4485403;31;33423;-62
2023/04/12 02:41:46;;;;;;;1.65;1.37;;;;;;;9.66;58.35;99017.44;4482973;31;32671;-63
2023/04/12 02:44:14;;;;;;;1.23;1.00;;;;;;;9.95;57.75;99011.44;4496758;31;34898;-60
2023/04/12 02:46:43;;;;;;;7.87;1.98;;;;;;;10.21;56.34;99011.97;4498579;31;32972;-61
2023/04/12 02:49:10;;;;;;;2.37;1.60;;;;;;;10.17;55.67;99006.00;4491927;31;34477;-61
2023/04/12 02:51:39;;;;;;;2.17;1.27;;;;;;;10.01;56.86;99005.59;4488838;31;33967;-61
2023/04/12 02:54:07;;;;;;;1.23;1.10;;;;;;;10.26;55.88;99009.75;4485366;31;34939;-60
2023/04/12 02:56:35;;;;;;;1.80;1.58;;;;;;;10.65;53.98;98999.28;4496749;31;32986;-61
2023/04/12 02:59:05;;;;;;;1.17;1.08;;;;;;;10.53;54.73;99000.34;4493688;31;34935;-61
2023/04/12 03:01:33;;;;;;;1.05;0.95;;;;;;;10.60;54.17;98993.50;4495338;31;34099;-61
2023/04/12 03:04:02;;;;;;;1.55;1.15;;;;;;;10.35;54.30;99002.78;4494109;31;33814;-61
2023/04/12 03:06:31;;;;;;;2.08;1.05;;;;;;;10.08;55.47;98996.09;4488450;31;33311;-60
2023/04/12 03:08:59;;;;;;;1.55;1.12;;;;;;;10.15;55.08;98996.44;4488231;31;33694;-61
2023/04/12 03:11:26;;;;;;;1.65;0.98;;;;;;;10.04;55.31;98995.50;4498585;31;33849;-61
2023/04/12 03:13:54;;;;;;;1.65;1.42;;;;;;;10.47;54.32;98997.22;4488056;31;33571;-61
2023/04/12 03:16:24;;;;;;;1.55;1.42;;;;;;;10.67;53.68;98986.63;4490480;31;34397;-61
2023/04/12 03:18:52;;;;;;;1.98;1.37;;;;;;;10.53;53.08;98987.81;4484526;31;32834;-61
2023/04/12 03:21:21;;;;;;;3.22;1.08;;;;;;;10.68;53.26;98978.44;4487092;31;33972;-60
2023/04/12 03:23:48;;;;;;;2.08;1.45;;;;;;;10.50;54.03;98977.38;4496867;31;34930;-62
2023/04/12 03:26:19;;;;;;;2.50;1.48;;;;;;;10.51;53.54;98980.91;4491681;31;33452;-61
2023/04/12 03:28:48;;;;;;;4.47;2.15;;;;;;;10.48;53.63;98976.66;4493797;31;34724;-61
2023/04/12 03:31:19;;;;;;;2.97;1.75;;;;;;;10.11;54.98;98977.13;4496166;31;34821;-62
2023/04/12 03:33:47;;;;;;;1.67;1.58;;;;;;;10.17;55.09;98978.41;4493796;31;33502;-61
2023/04/12 03:36:16;;;;;;;3.70;1.90;;;;;;;10.56;52.94;98960.81;4487181;31;34482;-61
2023/04/12 03:39:04;;;;;;;1.25;1.12;;;;;;;10.89;52.01;98969.53;4492486;31;34913;-61
2023/04/12 03:41:32;;;;;;;2.10;1.30;;;;;;;11.03;51.58;98962.94;4486945;31;34224;-63
2023/04/12 03:44:01;;;;;;;3.35;2.12;;;;;;;10.31;53.42;98953.22;4491254;31;34126;-61
2023/04/12 03:46:30;;;;;;;1.08;1.00;;;;;;;10.69;52.38;98960.59;4495662;31;33539;-60
2023/04/12 03:48:58;;;;;;;1.27;1.17;;;;;;;9.91;54.52;98959.25;4489159;31;33598;-60
2023/04/12 03:51:26;;;;;;;2.35;1.02;;;;;;;9.84;54.84;98963.41;4485191;31;34150;-61
2023/04/12 03:53:54;;;;;;;1.00;0.93;;;;;;;9.84;55.09;98958.06;4494768;31;34669;-60
2023/04/12 03:56:22;;;;;;;2.90;1.48;;;;;;;9.74;55.01;98960.66;4497037;31;33281;-60
2023/04/12 03:58:50;;;;;;;1.70;1.58;;;;;;;9.39;55.44;98955.56;4495565;31;34421;-61
2023/04/12 04:01:18;;;;;;;3.30;2.25;;;;;;;9.73;55.24;98959.81;4495731;31;34219;-61
2023/04/12 04:03:46;;;;;;;2.25;1.35;;;;;;;9.47;55.52;98953.09;4488863;31;32522;-62
2023/04/12 04:06:16;;;;;;;1.23;1.02;;;;;;;9.64;55.47;98962.41;4494257;31;33340;-61
2023/04/12 04:08:44;;;;;;;1.95;1.58;;;;;;;9.65;56.64;98959.59;4493242;31;33670;-62
2023/04/12 04:11:13;;;;;;;2.65;1.85;;;;;;;8.90;58.77;98962.25;4496075;31;33817;-60
2023/04/12 04:13:41;;;;;;;1.65;1.40;;;;;;;8.89;57.99;98963.19;4492124;31;33646;-61
2023/04/12 04:16:09;;;;;;;2.45;1.75;;;;;;;9.25;57.11;98957.56;4493756;31;32233;-61
2023/04/12 04:18:38;;;;;;;1.70;1.60;;;;;;;9.12;57.94;98958.66;4493087;31;32523;-61
2023/04/12 04:21:06;;;;;;;1.83;1.12;;;;;;;9.23;57.68;98958.66;4494061;31;34107;-61
2023/04/12 04:23:37;;;;;;;1.20;1.10;;;;;;;9.60;55.26;98967.16;4484833;31;33729;-60
2023/04/12 04:26:09;;;;;;;1.58;1.30;;;;;;;9.75;55.92;98963.19;4490000;31;32240;-61
2023/04/12 04:28:38;;;;;;;1.58;1.27;;;;;;;10.35;53.60;98955.47;4493975;31;34969;-63
2023/04/12 04:31:06;;;;;;;2.53;1.60;;;;;;;9.49;56.71;98960.03;4493797;31;33883;-62
2023/04/12 04:33:35;;;;;;;1.75;1.58;;;;;;;10.10;55.08;98967.38;4484334;31;34319;-63
2023/04/12 04:36:03;;;;;;;15.43;2.72;;;;;;;9.92;54.68;98964.47;4497175;31;33494;-62
2023/04/12 04:38:32;;;;;;;1.98;1.67;;;;;;;9.73;56.42;98951.81;4486646;31;33752;-61
2023/04/12 04:41:04;;;;;;;1.77;1.30;;;;;;;10.51;53.39;98963.03;4490063;31;35193;-60
2023/04/12 04:43:34;;;;;;;2.62;2.00;;;;;;;11.06;51.94;98960.84;4489480;31;32236;-62
2023/04/12 04:46:01;;;;;;;2.87;1.85;;;;;;;11.15;51.83;98957.34;4493096;31;33122;-61
2023/04/12 04:48:29;;;;;;;4.97;3.15;;;;;;;10.37;52.87;98953.53;4494432;31;34557;-62
2023/04/12 04:50:59;;;;;;;4.15;2.03;;;;;;;10.36;55.69;98956.31;4484357;31;35254;-62
2023/04/12 04:53:26;;;;;;;7.70;2.42;;;;;;;11.21;51.38;98953.25;4489095;31;32580;-61
2023/04/12 04:55:59;;;;;;;1.40;1.27;;;;;;;10.96;51.71;98952.78;4489438;31;33750;-61
2023/04/12 04:58:29;;;;;;;5.05;2.25;;;;;;;10.31;53.87;98951.38;4482216;31;33768;-61
2023/04/12 05:00:58;;;;;;;1.73;1.62;;;;;;;10.77;52.47;98949.19;4491588;31;35330;-61
2023/04/12 05:03:28;;;;;;;5.28;1.37;;;;;;;11.02;51.84;98947.88;4484288;31;33809;-61
2023/04/12 05:05:59;;;;;;;1.90;1.48;;;;;;;10.67;53.20;98949.16;4481869;31;33080;-62
2023/04/12 05:08:27;;;;;;;3.53;1.85;;;;;;;10.59;52.75;98946.28;4491462;31;32663;-60
2023/04/12 05:10:56;;;;;;;2.08;1.37;;;;;;;10.20;53.48;98956.75;4485567;31;34623;-61
2023/04/12 05:13:24;;;;;;;1.12;1.02;;;;;;;10.80;52.37;98954.28;4491568;31;33891;-61
2023/04/12 05:15:52;;;;;;;1.73;1.17;;;;;;;11.26;51.29;98963.56;4493429;31;31469;-62
2023/04/12 05:18:20;;;;;;;5.18;2.95;;;;;;;11.84;49.15;98953.75;4493905;31;35073;-63
2023/04/12 05:20:48;;;;;;;2.33;1.42;;;;;;;12.85;46.87;98953.22;4493961;31;34902;-63
2023/04/12 05:23:16;;;;;;;0.60;0.60;;;;;;;12.82;46.32;98954.38;4491023;31;34650;-61
2023/04/12 05:25:48;;;;;;;1.27;1.17;;;;;;;12.68;46.62;98947.66;4492939;31;33707;-62
2023/04/12 05:28:16;;;;;;;1.45;1.17;;;;;;;12.14;48.29;98962.63;4494120;31;33826;-64
2023/04/12 05:30:45;;;;;;;2.80;1.80;;;;;;;12.81;46.28;98956.22;4486804;31;33585;-62
2023/04/12 05:33:12;;;;;;;2.95;1.45;;;;;;;12.28;48.21;98953.28;4491509;31;33809;-64
2023/04/12 05:35:41;;;;;;;1.33;1.05;;;;;;;11.68;49.75;98956.13;4490307;31;34195;-62
2023/04/12 05:38:10;;;;;;;2.03;1.50;;;;;;;11.58;49.73;98957.97;4496378;31;33211;-60
2023/04/12 05:40:38;;;;;;;1.70;1.27;;;;;;;10.67;52.24;98965.22;4501777;31;33872;-61
2023/04/12 05:43:07;;;;;;;5.05;2.05;;;;;;;11.40;49.88;98965.84;4494682;31;33636;-60
2023/04/12 05:45:35;;;;;;;0.82;0.82;;;;;;;10.71;52.49;98962.13;4493339;31;33190;-60
2023/04/12 05:48:02;;;;;;;6.35;2.25;;;;;;;11.33;51.48;98957.53;4493094;31;33947;-62
2023/04/12 05:50:30;;;;;;;2.53;2.08;;;;;;;11.84;49.47;98950.19;4501366;31;35165;-61
2023/04/12 05:53:00;;;;;;;0.62;0.62;;;;;;;13.14;47.31;98953.91;4498522;31;34543;-61
2023/04/12 05:55:28;;;;;;;3.17;1.40;;;;;;;13.92;44.15;98950.69;4494176;31;33092;-62
2023/04/12 05:57:57;;;;;;;1.92;1.75;;;;;;;12.53;47.47;98946.44;4488980;31;34674;-62
2023/04/12 06:00:26;;;;;;;1.42;1.23;;;;;;;12.96;46.25;98943.13;4495770;31;33991;-63
2023/04/12 06:02:55;;;;;;;2.42;1.98;;;;;;;12.61;47.37;98948.38;4490752;31;33808;-61
2023/04/12 06:05:23;;;;;;;3.40;2.37;;;;;;;12.10;48.18;98948.66;4491735;31;34231;-64
2023/04/12 06:07:51;;;;;;;3.83;1.50;;;;;;;11.91;48.86;98947.81;4487733;31;34692;-62
2023/04/12 06:10:18;;;;;;;2.33;1.50;;;;;;;11.87;49.22;98945.41;4490477;31;33660;-62
2023/04/12 06:12:47;;;;;;;3.30;2.25;;;;;;;12.07;49.08;98945.41;4489355;31;35956;-61
2023/04/12 06:15:15;;;;;;;1.45;1.00;;;;;;;11.37;50.53;98948.22;4487396;31;33556;-61
2023/04/12 06:17:44;;;;;;;1.50;1.17;;;;;;;11.06;51.66;98943.94;4486060;31;33844;-61
2023/04/12 06:20:11;;;;;;;2.15;1.67;;;;;;;10.99;52.04;98954.34;4492270;31;34149;-64
2023/04/12 06:22:39;;;;;;;3.75;2.25;;;;;;;11.17;52.39;98946.47;4494411;31;34682;-63
2023/04/12 06:25:07;;;;;;;5.37;2.92;;;;;;;11.37;51.10;98948.22;4491020;31;33339;-61
2023/04/12 06:27:35;;;;;;;3.75;2.47;;;;;;;11.13;52.08;98956.63;4492561;31;33820;-61
2023/04/12 06:30:02;;;;;;;4.65;2.95;;;;;;;10.61;53.00;98945.19;4498953;31;34007;-62
2023/04/12 06:32:31;;;;;;;1.73;1.42;;;;;;;11.04;52.84;98946.72;4482397;31;33751;-61
2023/04/12 06:34:59;;;;;;;1.80;1.35;;;;;;;11.33;51.86;98945.94;4492487;31;33377;-62
2023/04/12 06:37:27;;;;;;;1.27;1.05;;;;;;;11.38;52.16;98951.75;4486599;31;33414;-61
2023/04/12 06:39:54;;;;;;;1.17;1.08;;;;;;;11.18;53.28;98950.88;4497973;31;33532;-61
2023/04/12 06:42:22;;;;;;;0.93;0.80;;;;;;;11.12;52.79;98964.81;4496538;31;34665;-62
2023/04/12 06:44:49;;;;;;;1.55;0.93;;;;;;;11.73;52.25;98961.06;4499416;31;31961;-63
2023/04/12 06:47:17;;;;;;;2.28;1.27;;;;;;;11.67;52.78;98967.84;4496027;31;33831;-63
2023/04/12 06:49:44;;;;;;;2.45;1.60;;;;;;;12.58;51.14;98965.59;4489813;31;34992;-63
2023/04/12 06:52:12;;;;;;;1.25;1.10;;;;;;;12.81;50.07;98966.13;4487369;31;34370;-63
2023/04/12 06:54:40;;;;;;;1.73;1.05;;;;;;;12.80;49.73;98967.09;4484454;31;34125;-62
2023/04/12 06:57:10;;;;;;;1.87;1.50;;;;;;;12.82;49.09;98965.94;4490611;31;34071;-62
2023/04/12 06:59:37;;;;;;;1.77;1.33;;;;;;;12.62;49.64;98969.72;4490131;31;33521;-63
2023/04/12 07:02:06;;;;;;;2.25;1.90;;;;;;;12.57;49.72;98974.66;4474749;31;32802;-62
2023/04/12 07:04:34;;;;;;;4.07;2.37;;;;;;;13.09;49.12;98968.78;4487258;31;34680;-62
2023/04/12 07:07:01;;;;;;;1.92;1.35;;;;;;;13.34;48.29;98970.81;4484388;32;34439;-62
2023/04/12 07:09:32;;;;;;;7.87;2.22;;;;;;;12.85;49.05;98972.03;4484308;31;32512;-62
2023/04/12 07:12:01;;;;;;;1.55;0.95;;;;;;;12.40;49.80;98975.44;4491404;31;32957;-62
2023/04/12 07:14:28;;;;;;;3.70;1.98;;;;;;;13.03;48.64;98973.78;4484521;31;33032;-63
2023/04/12 07:16:56;;;;;;;1.85;1.55;;;;;;;13.01;48.46;98977.59;4489156;31;33756;-63
2023/04/12 07:19:23;;;;;;;1.52;1.42;;;;;;;12.85;48.82;98972.03;4493660;31;35177;-63
2023/04/12 07:21:51;;;;;;;5.68;3.37;;;;;;;12.63;48.63;98968.72;4495767;31;34199;-63
2023/04/12 07:24:18;;;;;;;1.30;1.20;;;;;;;12.89;47.92;98966.19;4487749;31;31962;-62
2023/04/12 07:26:47;;;;;;;1.55;1.45;;;;;;;12.84;48.40;98952.38;4498439;31;33689;-63
2023/04/12 07:29:16;;;;;;;5.62;2.33;;;;;;;13.47;47.16;98954.31;4497607;31;34591;-62
2023/04/12 07:31:44;;;;;;;2.90;2.42;;;;;;;12.80;49.29;98954.50;4491713;31;33361;-63
2023/04/12 07:34:11;;;;;;;1.02;0.90;;;;;;;12.63;48.38;98941.87;4488888;31;33354;-62
2023/04/12 07:36:39;;;;;;;3.85;2.15;;;;;;;12.73;47.52;98941.81;4486142;31;34786;-64
2023/04/12 07:39:10;;;;;;;5.53;1.83;;;;;;;13.25;46.66;98942.13;4487938;31;34979;-62
2023/04/12 07:41:38;;;;;;;4.60;1.40;;;;;;;12.41;48.42;98942.22;4489673;31;33942;-63
2023/04/12 07:44:06;;;;;;;3.40;2.08;;;;;;;12.45;48.41;98948.97;4484548;31;32314;-61
2023/04/12 07:46:33;;;;;;;1.98;1.30;;;;;;;12.73;47.68;98948.03;4488531;31;33787;-63
2023/04/12 07:49:01;;;;;;;1.65;1.33;;;;;;;12.50;48.02;98944.88;4493533;31;32455;-62
2023/04/12 07:51:28;;;;;;;2.83;1.48;;;;;;;12.53;49.19;98949.97;4498370;31;33980;-62
2023/04/12 07:53:56;;;;;;;2.30;1.25;;;;;;;12.59;48.97;98935.94;4491983;31;33716;-62
2023/04/12 07:56:24;;;;;;;1.83;1.25;;;;;;;12.92;46.95;98925.63;4489469;31;33874;-61
2023/04/12 07:58:52;;;;;;;2.12;1.08;;;;;;;12.89;46.66;98919.72;4492915;31;35296;-63
2023/04/12 08:01:19;;;;;;;1.67;1.15;;;;;;;13.33;45.43;98923.44;4486586;31;34641;-61
2023/04/12 08:03:47;;;;;;;1.00;0.93;;;;;;;13.26;45.28;98919.66;4483679;31;34444;-62
2023/04/12 08:06:16;;;;;;;1.80;0.95;;;;;;;13.35;45.96;98920.56;4490171;31;33784;-63
2023/04/12 08:08:43;;;;;;;4.90;1.77;;;;;;;13.50;44.39;98919.91;4495011;31;34008;-62
2023/04/12 08:11:11;;;;;;;2.20;1.73;;;;;;;13.99;42.77;98923.00;4497275;31;34016;-63
2023/04/12 08:13:38;;;;;;;3.67;1.65;;;;;;;13.66;43.91;98924.56;4483939;31;33024;-62
2023/04/12 08:16:07;;;;;;;1.40;1.10;;;;;;;13.79;42.35;98928.72;4489426;31;33906;-63
2023/04/12 08:18:35;;;;;;;1.65;1.10;;;;;;;14.24;41.99;98935.81;4486160;31;33095;-63
2023/04/12 08:21:03;;;;;;;1.33;0.98;;;;;;;13.65;43.82;98941.72;4492615;31;33513;-63
2023/04/12 08:23:30;;;;;;;2.10;1.25;;;;;;;14.67;42.73;98946.53;4481740;31;33372;-62
2023/04/12 08:26:02;;;;;;;1.95;1.50;;;;;;;14.61;40.89;98938.25;4490027;31;33686;-64
2023/04/12 08:28:30;;;;;;;1.45;1.08;;;;;;;15.34;40.85;98935.84;4488268;31;35048;-63
2023/04/12 08:30:58;;;;;;;3.65;1.33;;;;;;;15.34;39.79;98935.00;4487281;31;33763;-62
2023/04/12 08:33:26;;;;;;;3.50;1.17;;;;;;;16.17;38.37;98948.41;4487980;31;34031;-63
2023/04/12 08:35:53;;;;;;;1.02;0.95;;;;;;;15.19;38.63;98944.75;4488870;31;34946;-62
2023/04/12 08:38:21;;;;;;;1.40;0.93;;;;;;;15.45;38.19;98941.94;4491187;31;32807;-63
2023/04/12 08:41:08;;;;;;;2.25;1.40;;;;;;;15.55;38.00;98934.53;4497689;31;33751;-63
2023/04/12 08:43:37;;;;;;;5.18;2.35;;;;;;;14.88;38.87;98929.13;4497601;31;33108;-64
2023/04/12 08:46:06;;;;;;;2.17;1.20;;;;;;;15.35;38.21;98928.59;4490842;31;33493;-63
2023/04/12 08:48:35;;;;;;;5.72;2.08;;;;;;;15.38;38.48;98936.38;4491062;31;35681;-61
2023/04/12 08:51:03;;;;;;;2.55;1.70;;;;;;;16.02;38.38;98933.94;4481517;31;34174;-60
2023/04/12 08:53:32;;;;;;;3.78;1.35;;;;;;;16.00;37.39;98944.06;4486419;31;32985;-60
2023/04/12 08:56:00;;;;;;;6.00;1.80;;;;;;;16.06;38.50;98921.78;4486192;31;33812;-60
2023/04/12 08:58:28;;;;;;;5.50;2.25;;;;;;;16.24;38.10;98930.56;4483354;31;35207;-60
2023/04/12 09:00:56;;;;;;;6.07;1.70;;;;;;;16.39;36.76;98927.13;4481500;31;34140;-60
2023/04/12 09:03:24;;;;;;;3.08;1.73;;;;;;;16.91;35.05;98938.31;4486418;31;31877;-61
2023/04/12 09:05:52;;;;;;;1.58;0.90;;;;;;;16.91;34.75;98932.06;4488572;31;35165;-61
2023/04/12 09:08:19;;;;;;;5.65;3.22;;;;;;;17.07;34.72;98923.06;4490570;31;32512;-61
2023/04/12 09:10:46;;;;;;;6.55;2.97;;;;;;;16.45;35.73;98926.44;4490669;31;33853;-63
2023/04/12 09:13:14;;;;;;;4.03;2.08;;;;;;;16.95;35.38;98938.81;4489722;31;33432;-61
2023/04/12 09:15:49;;;;;;;6.28;2.67;;;;;;;16.54;34.39;98941.63;4488290;31;33417;-61
2023/04/12 09:18:17;;;;;;;4.05;1.92;;;;;;;16.70;35.23;98930.78;4490880;31;34086;-62
2023/04/12 09:20:45;;;;;;;6.05;1.70;;;;;;;17.22;32.93;98924.00;4494235;31;34911;-62
2023/04/12 09:23:20;;;;;;;1.75;1.23;;;;;;;17.42;32.33;98917.09;4493595;31;33100;-62
2023/04/12 09:25:51;;;;;;;4.25;1.73;;;;;;;17.52;31.78;98914.16;4489128;31;33868;-62
2023/04/12 09:28:26;;;;;;;3.20;1.77;;;;;;;17.59;32.33;98927.81;4487854;31;32919;-62
2023/04/12 09:30:55;;;;;;;3.30;1.33;;;;;;;16.59;32.28;98924.88;4481964;31;33709;-61
2023/04/12 09:33:33;;;;;;;9.18;2.47;;;;;;;17.40;31.76;98911.06;4483485;31;33457;-62
2023/04/12 09:36:02;;;;;;;5.85;2.60;;;;;;;17.00;31.96;98917.50;4491766;31;34318;-63
2023/04/12 09:38:30;;;;;;;0.95;0.77;;;;;;;17.11;33.08;98914.44;4489283;31;32854;-62
2023/04/12 09:41:18;;;;;;;2.00;1.40;;;;;;;16.96;32.01;98913.47;4485649;31;35012;-63
2023/04/12 09:43:50;;;;;;;3.10;1.92;;;;;;;17.19;32.04;98908.97;4486701;31;33314;-62
2023/04/12 09:46:17;;;;;;;5.45;1.77;;;;;;;17.96;30.34;98908.12;4489410;31;35065;-63
2023/04/12 09:48:50;;;;;;;4.68;1.92;;;;;;;17.84;31.14;98899.59;4493781;31;35586;-63
2023/04/12 09:51:35;;;;;;;2.97;1.60;;;;;;;17.63;30.72;98900.25;4489808;31;33603;-62
2023/04/12 09:54:05;;;;;;;9.67;3.23;;;;;;;17.75;30.23;98899.78;4488468;31;33232;-62
2023/04/12 09:56:34;;;;;;;3.08;1.40;;;;;;;18.14;30.21;98896.97;4496728;31;34005;-62
2023/04/12 09:59:03;;;;;;;2.20;1.27;;;;;;;18.55;28.76;98891.94;4490190;31;33819;-62
2023/04/12 10:01:36;;;;;;;1.30;0.82;;;;;;;18.25;28.96;98885.69;4485517;31;34998;-62
2023/04/12 10:04:06;;;;;;;2.22;1.10;;;;;;;18.34;28.53;98876.44;4489780;31;32266;-62
2023/04/12 10:06:35;;;;;;;4.55;1.98;;;;;;;18.20;29.56;98882.66;4490721;31;34483;-62
2023/04/12 10:09:03;;;;;;;3.53;1.05;;;;;;;18.31;29.98;98895.78;4491791;31;33733;-62
2023/04/12 10:11:32;;;;;;;2.42;1.08;;;;;;;18.45;29.00;98883.25;4492641;31;34017;-62
2023/04/12 10:14:01;;;;;;;2.28;1.02;;;;;;;18.92;28.13;98883.94;4494531;31;33602;-62
2023/04/12 10:16:29;;;;;;;6.50;2.15;;;;;;;18.52;28.23;98886.94;4490095;31;33968;-61
2023/04/12 10:19:01;;;;;;;4.35;1.42;;;;;;;18.80;28.25;98881.69;4499809;31;34073;-62
2023/04/12 10:21:29;;;;;;;6.82;2.53;;;;;;;19.66;27.02;98887.31;4496764;31;34396;-62
2023/04/12 10:23:57;;;;;;;2.33;1.35;;;;;;;19.84;27.40;98877.84;4491203;31;34734;-62
2023/04/12 10:26:25;;;;;;;3.12;1.37;;;;;;;19.88;26.91;98874.56;4495679;31;34829;-62
2023/04/12 10:29:28;;;;;;;7.03;2.42;;;;;;;19.41;26.98;98872.41;4497445;31;32498;-62
2023/04/12 10:31:57;;;;;;;2.00;1.25;;;;;;;19.79;26.54;98875.72;4491520;31;34657;-62
2023/04/12 10:34:29;;;;;;;3.67;1.77;;;;;;;19.89;26.92;98875.41;4490366;31;32154;-62
2023/04/12 10:37:00;;;;;;;3.22;1.62;;;;;;;20.51;26.41;98884.62;4495427;31;33801;-64
2023/04/12 10:39:41;;;;;;;3.40;1.48;;;;;;;20.23;25.16;98878.19;4492881;31;32991;-62
2023/04/12 10:42:23;;;;;;;4.53;1.87;;;;;;;20.60;25.45;98872.59;4495049;31;32612;-62
2023/04/12 10:44:53;;;;;;;2.40;1.40;;;;;;;20.21;24.83;98865.84;4492152;31;33492;-63
2023/04/12 10:47:53;;;;;;;3.60;1.62;;;;;;;19.96;26.13;98868.13;4489819;31;34777;-62
2023/04/12 10:50:28;;;;;;;3.42;1.70;;;;;;;20.03;26.25;98863.59;4493327;31;33498;-62
2023/04/12 10:53:11;;;;;;;10.25;1.95;;;;;;;20.86;25.91;98856.41;4484447;31;34973;-61
2023/04/12 10:55:40;;;;;;;4.60;1.65;;;;;;;20.70;24.80;98859.47;4488219;31;32352;-62
2023/04/12 10:58:08;;;;;;;2.10;1.12;;;;;;;20.39;23.31;98841.72;4492064;31;32191;-62
2023/04/12 11:01:05;;;;;;;4.12;1.27;;;;;;;20.31;23.53;98844.56;4491035;31;35242;-62
2023/04/12 11:03:33;;;;;;;7.00;1.33;;;;;;;19.66;23.30;98840.31;4473901;31;33836;-62
2023/04/12 11:06:03;;;;;;;3.40;1.37;;;;;;;19.38;24.80;98835.63;4487060;31;33245;-62
2023/04/12 11:08:54;;;;;;;3.50;1.35;;;;;;;19.86;24.91;98845.91;4497774;31;32746;-62
2023/04/12 11:11:24;;;;;;;3.70;1.80;;;;;;;19.31;25.15;98842.87;4484631;31;33983;-62
2023/04/12 11:13:55;;;;;;;4.55;1.35;;;;;;;19.86;25.68;98845.91;4483501;31;33552;-63
2023/04/12 11:16:23;;;;;;;3.00;1.67;;;;;;;19.72;25.45;98834.94;4492090;31;32529;-61
2023/04/12 11:18:50;;;;;;;5.18;1.87;;;;;;;19.91;26.55;98838.03;4486341;31;33738;-61
2023/04/12 11:21:19;;;;;;;1.65;0.82;;;;;;;19.77;25.93;98832.50;4485388;31;35029;-61
2023/04/12 11:23:46;;;;;;;3.65;1.45;;;;;;;20.13;24.64;98825.25;4488585;31;33725;-61
2023/04/12 11:26:19;;;;;;;2.70;1.45;;;;;;;19.44;25.83;98831.31;4484425;31;33121;-62
2023/04/12 11:28:49;;;;;;;2.12;1.02;;;;;;;19.73;25.31;98828.47;4488200;31;33793;-62
2023/04/12 11:31:19;;;;;;;2.85;1.33;;;;;;;19.71;24.94;98827.84;4490356;31;32269;-63
2023/04/12 11:33:46;;;;;;;5.15;1.20;;;;;;;19.77;24.56;98818.06;4488394;31;32980;-63
2023/04/12 11:36:14;;;;;;;2.75;1.17;;;;;;;19.91;25.23;98816.31;4492193;31;34265;-62
2023/04/12 11:38:44;;;;;;;3.53;1.33;;;;;;;19.93;25.22;98815.06;4481735;31;33333;-61
2023/04/12 11:41:13;;;;;;;1.58;0.95;;;;;;;19.95;25.85;98815.72;4495436;31;32579;-61
2023/04/12 11:43:41;;;;;;;3.70;1.58;;;;;;;19.93;24.96;98833.22;4488286;31;33612;-63
2023/04/12 11:46:09;;;;;;;4.22;1.73;;;;;;;20.04;25.36;98823.72;4489165;31;33362;-62